sensor_id;sensor_type;location;lat;lon;timestamp;P1;durP1;ratioP1;P2;durP2;ratioP2
41923;SDS011;27613;48.116;11.656;2022-12-04T00:02:13;33.88;;;18.80;;
41923;SDS011;27613;48.116;11.656;2022-12-04T00:04:38;25.70;;;16.85;;
41923;SDS011;27613;48.116;11.656;2022-12-04T00:07:04;33.15;;;17.80;;
41923;SDS011;27613;48.116;11.656;2022-12-04T00:09:30;29.00;;;17.83;;
41923;SDS011;27613;48.116;11.656;2022-12-04T00:11:55;27.67;;;18.05;;
41923;SDS011;27613;48.116;11.656;2022-12-04T00:14:21;29.42;;;17.85;;
41923;SDS011;27613;48.116;11.656;2022-12-04T00:16:46;27.75;;;17.25;;
41923;SDS011;27613;48.116;11.656;2022-12-04T00:19:14;27.48;;;17.42;;
41923;SDS011;27613;48.116;11.656;2022-12-04T00:21:40;26.55;;;17.52;;
41923;SDS011;27613;48.116;11.656;2022-12-04T00:24:05;24.40;;;16.27;;
41923;SDS011;27613;48.116;11.656;2022-12-04T00:26:31;25.17;;;17.10;;
41923;SDS011;27613;48.116;11.656;2022-12-04T00:28:57;25.98;;;15.98;;
41923;SDS011;27613;48.116;11.656;2022-12-04T00:31:24;21.35;;;15.02;;
41923;SDS011;27613;48.116;11.656;2022-12-04T00:33:51;26.08;;;16.88;;
41923;SDS011;27613;48.116;11.656;2022-12-04T00:36:18;25.35;;;16.48;;
41923;SDS011;27613;48.116;11.656;2022-12-04T00:38:44;24.73;;;15.18;;
41923;SDS011;27613;48.116;11.656;2022-12-04T00:41:11;26.95;;;16.05;;
41923;SDS011;27613;48.116;11.656;2022-12-04T00:43:38;24.63;;;15.77;;
41923;SDS011;27613;48.116;11.656;2022-12-04T00:46:04;26.10;;;16.55;;
41923;SDS011;27613;48.116;11.656;2022-12-04T00:48:29;28.00;;;17.23;;
41923;SDS011;27613;48.116;11.656;2022-12-04T00:50:59;27.67;;;16.75;;
41923;SDS011;27613;48.116;11.656;2022-12-04T00:53:26;23.83;;;14.75;;
41923;SDS011;27613;48.116;11.656;2022-12-04T00:55:51;22.73;;;14.77;;
41923;SDS011;27613;48.116;11.656;2022-12-04T00:58:17;24.60;;;15.50;;
41923;SDS011;27613;48.116;11.656;2022-12-04T01:00:42;22.27;;;14.07;;
41923;SDS011;27613;48.116;11.656;2022-12-04T01:03:09;26.33;;;15.35;;
41923;SDS011;27613;48.116;11.656;2022-12-04T01:05:41;21.80;;;14.60;;
41923;SDS011;27613;48.116;11.656;2022-12-04T01:08:08;24.75;;;15.35;;
41923;SDS011;27613;48.116;11.656;2022-12-04T01:10:39;25.23;;;15.50;;
41923;SDS011;27613;48.116;11.656;2022-12-04T01:13:05;24.08;;;14.45;;
41923;SDS011;27613;48.116;11.656;2022-12-04T01:15:31;28.45;;;15.05;;
41923;SDS011;27613;48.116;11.656;2022-12-04T01:17:57;23.13;;;14.95;;
41923;SDS011;27613;48.116;11.656;2022-12-04T01:20:22;23.67;;;15.07;;
41923;SDS011;27613;48.116;11.656;2022-12-04T01:22:48;23.38;;;15.15;;
41923;SDS011;27613;48.116;11.656;2022-12-04T01:25:14;22.23;;;14.40;;
41923;SDS011;27613;48.116;11.656;2022-12-04T01:27:39;23.08;;;14.68;;
41923;SDS011;27613;48.116;11.656;2022-12-04T01:30:05;21.23;;;15.43;;
41923;SDS011;27613;48.116;11.656;2022-12-04T01:32:31;19.88;;;13.82;;
41923;SDS011;27613;48.116;11.656;2022-12-04T01:34:57;23.92;;;15.48;;
41923;SDS011;27613;48.116;11.656;2022-12-04T01:37:22;21.83;;;14.75;;
41923;SDS011;27613;48.116;11.656;2022-12-04T01:39:48;26.67;;;14.35;;
41923;SDS011;27613;48.116;11.656;2022-12-04T01:42:13;21.60;;;13.68;;
41923;SDS011;27613;48.116;11.656;2022-12-04T01:44:43;21.48;;;13.38;;
41923;SDS011;27613;48.116;11.656;2022-12-04T01:47:47;21.85;;;14.18;;
41923;SDS011;27613;48.116;11.656;2022-12-04T01:50:13;21.70;;;15.25;;
41923;SDS011;27613;48.116;11.656;2022-12-04T01:52:38;20.25;;;13.88;;
41923;SDS011;27613;48.116;11.656;2022-12-04T01:55:04;20.92;;;13.52;;
41923;SDS011;27613;48.116;11.656;2022-12-04T01:57:30;20.17;;;13.43;;
41923;SDS011;27613;48.116;11.656;2022-12-04T01:59:59;20.05;;;13.18;;
41923;SDS011;27613;48.116;11.656;2022-12-04T02:02:30;23.77;;;13.93;;
41923;SDS011;27613;48.116;11.656;2022-12-04T02:04:59;23.52;;;13.32;;
41923;SDS011;27613;48.116;11.656;2022-12-04T02:07:26;25.85;;;14.25;;
41923;SDS011;27613;48.116;11.656;2022-12-04T02:09:52;20.50;;;13.85;;
41923;SDS011;27613;48.116;11.656;2022-12-04T02:12:25;20.27;;;13.63;;
41923;SDS011;27613;48.116;11.656;2022-12-04T02:18:03;19.48;;;12.98;;
41923;SDS011;27613;48.116;11.656;2022-12-04T02:23:55;19.38;;;12.90;;
41923;SDS011;27613;48.116;11.656;2022-12-04T02:27:29;25.30;;;13.60;;
41923;SDS011;27613;48.116;11.656;2022-12-04T02:29:43;18.35;;;13.38;;
41923;SDS011;27613;48.116;11.656;2022-12-04T02:32:40;19.25;;;13.05;;
41923;SDS011;27613;48.116;11.656;2022-12-04T02:35:14;19.08;;;12.90;;
41923;SDS011;27613;48.116;11.656;2022-12-04T02:37:48;19.92;;;13.20;;
41923;SDS011;27613;48.116;11.656;2022-12-04T02:43:14;20.52;;;13.43;;
41923;SDS011;27613;48.116;11.656;2022-12-04T02:45:45;23.38;;;13.52;;
41923;SDS011;27613;48.116;11.656;2022-12-04T02:48:23;19.73;;;13.20;;
41923;SDS011;27613;48.116;11.656;2022-12-04T02:50:50;22.10;;;13.98;;
41923;SDS011;27613;48.116;11.656;2022-12-04T02:53:19;20.48;;;13.63;;
41923;SDS011;27613;48.116;11.656;2022-12-04T02:55:51;18.15;;;12.27;;
41923;SDS011;27613;48.116;11.656;2022-12-04T02:58:23;17.98;;;12.98;;
41923;SDS011;27613;48.116;11.656;2022-12-04T03:00:53;21.85;;;13.52;;
41923;SDS011;27613;48.116;11.656;2022-12-04T03:03:22;24.80;;;12.38;;
41923;SDS011;27613;48.116;11.656;2022-12-04T03:08:24;19.73;;;13.25;;
41923;SDS011;27613;48.116;11.656;2022-12-04T03:10:53;19.80;;;14.27;;
41923;SDS011;27613;48.116;11.656;2022-12-04T03:13:27;22.75;;;14.40;;
41923;SDS011;27613;48.116;11.656;2022-12-04T03:15:56;21.88;;;14.57;;
41923;SDS011;27613;48.116;11.656;2022-12-04T03:18:38;25.33;;;13.77;;
41923;SDS011;27613;48.116;11.656;2022-12-04T03:21:18;18.13;;;12.73;;
41923;SDS011;27613;48.116;11.656;2022-12-04T03:23:54;19.98;;;14.32;;
41923;SDS011;27613;48.116;11.656;2022-12-04T03:28:56;21.65;;;13.77;;
41923;SDS011;27613;48.116;11.656;2022-12-04T03:31:38;19.90;;;12.77;;
41923;SDS011;27613;48.116;11.656;2022-12-04T03:34:14;21.45;;;13.63;;
41923;SDS011;27613;48.116;11.656;2022-12-04T03:36:48;22.73;;;14.43;;
41923;SDS011;27613;48.116;11.656;2022-12-04T03:39:21;16.90;;;12.43;;
41923;SDS011;27613;48.116;11.656;2022-12-04T03:41:54;22.25;;;13.95;;
41923;SDS011;27613;48.116;11.656;2022-12-04T03:44:37;20.23;;;14.00;;
41923;SDS011;27613;48.116;11.656;2022-12-04T03:47:31;19.95;;;12.95;;
41923;SDS011;27613;48.116;11.656;2022-12-04T03:50:13;22.83;;;15.20;;
41923;SDS011;27613;48.116;11.656;2022-12-04T03:53:09;17.65;;;12.80;;
41923;SDS011;27613;48.116;11.656;2022-12-04T03:58:52;17.90;;;12.07;;
41923;SDS011;27613;48.116;11.656;2022-12-04T04:01:26;18.95;;;13.57;;
41923;SDS011;27613;48.116;11.656;2022-12-04T04:03:56;20.23;;;13.00;;
41923;SDS011;27613;48.116;11.656;2022-12-04T04:06:24;22.23;;;14.68;;
41923;SDS011;27613;48.116;11.656;2022-12-04T04:08:55;21.30;;;13.80;;
41923;SDS011;27613;48.116;11.656;2022-12-04T04:11:30;18.58;;;12.38;;
41923;SDS011;27613;48.116;11.656;2022-12-04T04:14:04;27.73;;;12.23;;
41923;SDS011;27613;48.116;11.656;2022-12-04T04:16:54;19.45;;;11.88;;
41923;SDS011;27613;48.116;11.656;2022-12-04T04:19:45;18.58;;;12.57;;
41923;SDS011;27613;48.116;11.656;2022-12-04T04:22:36;17.75;;;11.73;;
41923;SDS011;27613;48.116;11.656;2022-12-04T04:25:22;16.35;;;11.65;;
41923;SDS011;27613;48.116;11.656;2022-12-04T04:27:55;18.23;;;12.23;;
41923;SDS011;27613;48.116;11.656;2022-12-04T04:30:22;19.88;;;13.02;;
41923;SDS011;27613;48.116;11.656;2022-12-04T04:32:58;18.70;;;13.00;;
41923;SDS011;27613;48.116;11.656;2022-12-04T04:35:32;20.15;;;13.20;;
41923;SDS011;27613;48.116;11.656;2022-12-04T04:38:30;15.07;;;11.23;;
41923;SDS011;27613;48.116;11.656;2022-12-04T04:41:05;16.40;;;11.48;;
41923;SDS011;27613;48.116;11.656;2022-12-04T04:43:43;19.85;;;12.07;;
41923;SDS011;27613;48.116;11.656;2022-12-04T04:46:20;19.27;;;13.07;;
41923;SDS011;27613;48.116;11.656;2022-12-04T04:48:53;17.50;;;11.65;;
41923;SDS011;27613;48.116;11.656;2022-12-04T04:51:21;15.95;;;11.25;;
41923;SDS011;27613;48.116;11.656;2022-12-04T04:53:52;16.83;;;12.55;;
41923;SDS011;27613;48.116;11.656;2022-12-04T04:56:20;15.57;;;11.75;;
41923;SDS011;27613;48.116;11.656;2022-12-04T04:58:46;20.10;;;12.65;;
41923;SDS011;27613;48.116;11.656;2022-12-04T05:01:13;17.90;;;12.27;;
41923;SDS011;27613;48.116;11.656;2022-12-04T05:03:41;18.77;;;12.35;;
41923;SDS011;27613;48.116;11.656;2022-12-04T05:06:07;17.38;;;12.10;;
41923;SDS011;27613;48.116;11.656;2022-12-04T05:08:33;22.25;;;13.93;;
41923;SDS011;27613;48.116;11.656;2022-12-04T05:11:00;16.25;;;11.95;;
41923;SDS011;27613;48.116;11.656;2022-12-04T05:13:26;18.73;;;13.13;;
41923;SDS011;27613;48.116;11.656;2022-12-04T05:18:27;21.65;;;12.70;;
41923;SDS011;27613;48.116;11.656;2022-12-04T05:20:53;22.67;;;14.98;;
41923;SDS011;27613;48.116;11.656;2022-12-04T05:23:19;18.08;;;13.52;;
41923;SDS011;27613;48.116;11.656;2022-12-04T05:25:45;18.08;;;13.30;;
41923;SDS011;27613;48.116;11.656;2022-12-04T05:28:11;17.23;;;12.43;;
41923;SDS011;27613;48.116;11.656;2022-12-04T05:30:36;21.63;;;13.48;;
41923;SDS011;27613;48.116;11.656;2022-12-04T05:33:02;17.45;;;12.77;;
41923;SDS011;27613;48.116;11.656;2022-12-04T05:35:27;22.15;;;13.40;;
41923;SDS011;27613;48.116;11.656;2022-12-04T05:37:53;19.98;;;14.18;;
41923;SDS011;27613;48.116;11.656;2022-12-04T05:40:18;22.58;;;15.05;;
41923;SDS011;27613;48.116;11.656;2022-12-04T05:42:44;22.83;;;13.88;;
41923;SDS011;27613;48.116;11.656;2022-12-04T05:45:10;21.02;;;13.32;;
41923;SDS011;27613;48.116;11.656;2022-12-04T05:47:39;19.55;;;13.60;;
41923;SDS011;27613;48.116;11.656;2022-12-04T05:50:09;29.23;;;16.05;;
41923;SDS011;27613;48.116;11.656;2022-12-04T05:52:35;21.27;;;14.63;;
41923;SDS011;27613;48.116;11.656;2022-12-04T05:55:01;31.65;;;15.20;;
41923;SDS011;27613;48.116;11.656;2022-12-04T05:57:27;21.45;;;14.35;;
41923;SDS011;27613;48.116;11.656;2022-12-04T05:59:52;18.73;;;13.73;;
41923;SDS011;27613;48.116;11.656;2022-12-04T06:02:18;34.75;;;15.50;;
41923;SDS011;27613;48.116;11.656;2022-12-04T06:04:43;24.65;;;15.02;;
41923;SDS011;27613;48.116;11.656;2022-12-04T06:07:09;21.25;;;14.65;;
41923;SDS011;27613;48.116;11.656;2022-12-04T06:09:35;22.38;;;14.80;;
41923;SDS011;27613;48.116;11.656;2022-12-04T06:12:01;24.98;;;14.45;;
41923;SDS011;27613;48.116;11.656;2022-12-04T06:14:27;20.58;;;13.82;;
41923;SDS011;27613;48.116;11.656;2022-12-04T06:16:52;22.27;;;15.10;;
41923;SDS011;27613;48.116;11.656;2022-12-04T06:19:18;20.20;;;12.90;;
41923;SDS011;27613;48.116;11.656;2022-12-04T06:21:46;23.40;;;14.65;;
41923;SDS011;27613;48.116;11.656;2022-12-04T06:24:15;21.05;;;14.40;;
41923;SDS011;27613;48.116;11.656;2022-12-04T06:26:42;24.65;;;15.55;;
41923;SDS011;27613;48.116;11.656;2022-12-04T06:29:09;31.58;;;14.98;;
41923;SDS011;27613;48.116;11.656;2022-12-04T06:31:35;19.42;;;13.57;;
41923;SDS011;27613;48.116;11.656;2022-12-04T06:34:02;22.48;;;14.60;;
41923;SDS011;27613;48.116;11.656;2022-12-04T06:36:28;21.40;;;14.13;;
41923;SDS011;27613;48.116;11.656;2022-12-04T06:38:55;23.52;;;14.70;;
41923;SDS011;27613;48.116;11.656;2022-12-04T06:41:21;30.65;;;14.45;;
41923;SDS011;27613;48.116;11.656;2022-12-04T06:43:48;19.48;;;13.93;;
41923;SDS011;27613;48.116;11.656;2022-12-04T06:46:16;24.88;;;14.38;;
41923;SDS011;27613;48.116;11.656;2022-12-04T06:48:47;17.92;;;12.52;;
41923;SDS011;27613;48.116;11.656;2022-12-04T06:51:15;19.75;;;13.50;;
41923;SDS011;27613;48.116;11.656;2022-12-04T06:53:43;21.33;;;13.23;;
41923;SDS011;27613;48.116;11.656;2022-12-04T06:56:10;23.48;;;13.80;;
41923;SDS011;27613;48.116;11.656;2022-12-04T06:58:38;22.58;;;14.73;;
41923;SDS011;27613;48.116;11.656;2022-12-04T07:01:04;18.85;;;14.18;;
41923;SDS011;27613;48.116;11.656;2022-12-04T07:03:31;20.65;;;12.82;;
41923;SDS011;27613;48.116;11.656;2022-12-04T07:05:57;16.90;;;11.85;;
41923;SDS011;27613;48.116;11.656;2022-12-04T07:08:23;15.20;;;11.43;;
41923;SDS011;27613;48.116;11.656;2022-12-04T07:10:48;26.90;;;13.20;;
41923;SDS011;27613;48.116;11.656;2022-12-04T07:13:14;18.50;;;12.90;;
41923;SDS011;27613;48.116;11.656;2022-12-04T07:15:39;23.08;;;12.68;;
41923;SDS011;27613;48.116;11.656;2022-12-04T07:18:05;23.35;;;13.32;;
41923;SDS011;27613;48.116;11.656;2022-12-04T07:20:30;16.83;;;12.18;;
41923;SDS011;27613;48.116;11.656;2022-12-04T07:22:56;17.30;;;12.13;;
41923;SDS011;27613;48.116;11.656;2022-12-04T07:25:22;20.77;;;12.32;;
41923;SDS011;27613;48.116;11.656;2022-12-04T07:27:47;18.70;;;12.32;;
41923;SDS011;27613;48.116;11.656;2022-12-04T07:30:13;17.70;;;13.02;;
41923;SDS011;27613;48.116;11.656;2022-12-04T07:32:39;20.02;;;13.55;;
41923;SDS011;27613;48.116;11.656;2022-12-04T07:35:05;20.98;;;13.10;;
41923;SDS011;27613;48.116;11.656;2022-12-04T07:37:31;20.50;;;14.05;;
41923;SDS011;27613;48.116;11.656;2022-12-04T07:39:59;17.85;;;13.07;;
41923;SDS011;27613;48.116;11.656;2022-12-04T07:42:26;17.98;;;12.95;;
41923;SDS011;27613;48.116;11.656;2022-12-04T07:44:53;29.08;;;14.75;;
41923;SDS011;27613;48.116;11.656;2022-12-04T07:47:18;20.40;;;14.05;;
41923;SDS011;27613;48.116;11.656;2022-12-04T07:49:44;18.67;;;13.35;;
41923;SDS011;27613;48.116;11.656;2022-12-04T07:52:09;19.40;;;13.38;;
41923;SDS011;27613;48.116;11.656;2022-12-04T07:54:35;19.63;;;11.90;;
41923;SDS011;27613;48.116;11.656;2022-12-04T07:57:01;17.55;;;12.30;;
41923;SDS011;27613;48.116;11.656;2022-12-04T07:59:26;16.50;;;11.55;;
41923;SDS011;27613;48.116;11.656;2022-12-04T08:01:52;16.65;;;11.13;;
41923;SDS011;27613;48.116;11.656;2022-12-04T08:04:17;15.43;;;10.77;;
41923;SDS011;27613;48.116;11.656;2022-12-04T08:06:43;15.82;;;11.18;;
41923;SDS011;27613;48.116;11.656;2022-12-04T08:09:09;29.98;;;13.25;;
41923;SDS011;27613;48.116;11.656;2022-12-04T08:11:34;18.52;;;12.75;;
41923;SDS011;27613;48.116;11.656;2022-12-04T08:14:01;22.90;;;13.60;;
41923;SDS011;27613;48.116;11.656;2022-12-04T08:16:29;18.73;;;12.90;;
41923;SDS011;27613;48.116;11.656;2022-12-04T08:18:56;23.30;;;14.55;;
41923;SDS011;27613;48.116;11.656;2022-12-04T08:21:23;21.55;;;12.60;;
41923;SDS011;27613;48.116;11.656;2022-12-04T08:23:51;17.98;;;12.77;;
41923;SDS011;27613;48.116;11.656;2022-12-04T08:26:18;28.38;;;14.10;;
41923;SDS011;27613;48.116;11.656;2022-12-04T08:28:46;16.30;;;12.50;;
41923;SDS011;27613;48.116;11.656;2022-12-04T08:31:14;15.27;;;11.75;;
41923;SDS011;27613;48.116;11.656;2022-12-04T08:33:42;18.17;;;12.30;;
41923;SDS011;27613;48.116;11.656;2022-12-04T08:36:09;21.60;;;13.95;;
41923;SDS011;27613;48.116;11.656;2022-12-04T08:38:36;18.33;;;13.02;;
41923;SDS011;27613;48.116;11.656;2022-12-04T08:41:03;17.27;;;12.55;;
41923;SDS011;27613;48.116;11.656;2022-12-04T08:43:30;14.88;;;11.27;;
41923;SDS011;27613;48.116;11.656;2022-12-04T08:45:57;20.70;;;12.15;;
41923;SDS011;27613;48.116;11.656;2022-12-04T08:48:24;24.10;;;13.65;;
41923;SDS011;27613;48.116;11.656;2022-12-04T08:50:50;17.63;;;12.88;;
41923;SDS011;27613;48.116;11.656;2022-12-04T08:53:16;17.63;;;12.98;;
41923;SDS011;27613;48.116;11.656;2022-12-04T08:55:41;16.33;;;12.35;;
41923;SDS011;27613;48.116;11.656;2022-12-04T08:58:07;18.85;;;11.93;;
41923;SDS011;27613;48.116;11.656;2022-12-04T09:00:32;17.75;;;12.35;;
41923;SDS011;27613;48.116;11.656;2022-12-04T09:02:58;16.10;;;12.05;;
41923;SDS011;27613;48.116;11.656;2022-12-04T09:05:23;19.33;;;12.95;;
41923;SDS011;27613;48.116;11.656;2022-12-04T09:07:49;18.08;;;12.38;;
41923;SDS011;27613;48.116;11.656;2022-12-04T09:10:14;25.23;;;12.30;;
41923;SDS011;27613;48.116;11.656;2022-12-04T09:12:40;17.08;;;12.57;;
41923;SDS011;27613;48.116;11.656;2022-12-04T09:15:06;17.55;;;12.70;;
41923;SDS011;27613;48.116;11.656;2022-12-04T09:17:33;14.20;;;10.80;;
41923;SDS011;27613;48.116;11.656;2022-12-04T09:20:00;19.48;;;13.40;;
41923;SDS011;27613;48.116;11.656;2022-12-04T09:22:29;18.25;;;12.82;;
41923;SDS011;27613;48.116;11.656;2022-12-04T09:24:55;15.63;;;10.88;;
41923;SDS011;27613;48.116;11.656;2022-12-04T09:27:21;11.98;;;9.73;;
41923;SDS011;27613;48.116;11.656;2022-12-04T09:29:46;13.40;;;10.55;;
41923;SDS011;27613;48.116;11.656;2022-12-04T09:32:12;16.13;;;10.57;;
41923;SDS011;27613;48.116;11.656;2022-12-04T09:34:38;13.45;;;10.70;;
41923;SDS011;27613;48.116;11.656;2022-12-04T09:37:03;13.43;;;9.95;;
41923;SDS011;27613;48.116;11.656;2022-12-04T09:39:29;15.57;;;11.63;;
41923;SDS011;27613;48.116;11.656;2022-12-04T09:45:07;12.32;;;10.18;;
41923;SDS011;27613;48.116;11.656;2022-12-04T09:47:37;15.60;;;10.48;;
41923;SDS011;27613;48.116;11.656;2022-12-04T09:55:24;18.92;;;13.73;;
41923;SDS011;27613;48.116;11.656;2022-12-04T09:57:54;16.67;;;12.30;;
41923;SDS011;27613;48.116;11.656;2022-12-04T10:00:23;14.43;;;11.38;;
41923;SDS011;27613;48.116;11.656;2022-12-04T10:02:58;17.35;;;13.52;;
41923;SDS011;27613;48.116;11.656;2022-12-04T10:08:35;17.88;;;8.38;;
41923;SDS011;27613;48.116;11.656;2022-12-04T10:13:56;14.15;;;10.50;;
41923;SDS011;27613;48.116;11.656;2022-12-04T10:16:49;14.25;;;10.63;;
41923;SDS011;27613;48.116;11.656;2022-12-04T10:22:12;15.75;;;12.43;;
41923;SDS011;27613;48.116;11.656;2022-12-04T10:24:58;18.98;;;14.15;;
41923;SDS011;27613;48.116;11.656;2022-12-04T10:27:30;17.67;;;12.98;;
41923;SDS011;27613;48.116;11.656;2022-12-04T10:30:22;15.40;;;11.30;;
41923;SDS011;27613;48.116;11.656;2022-12-04T10:35:41;12.55;;;10.20;;
41923;SDS011;27613;48.116;11.656;2022-12-04T10:38:11;15.27;;;11.52;;
41923;SDS011;27613;48.116;11.656;2022-12-04T10:40:51;14.65;;;11.30;;
41923;SDS011;27613;48.116;11.656;2022-12-04T10:43:40;13.60;;;11.07;;
41923;SDS011;27613;48.116;11.656;2022-12-04T10:46:10;18.60;;;11.18;;
41923;SDS011;27613;48.116;11.656;2022-12-04T10:48:42;19.27;;;11.35;;
41923;SDS011;27613;48.116;11.656;2022-12-04T10:51:13;15.00;;;12.35;;
41923;SDS011;27613;48.116;11.656;2022-12-04T10:53:40;15.85;;;11.93;;
41923;SDS011;27613;48.116;11.656;2022-12-04T10:56:14;17.73;;;11.77;;
41923;SDS011;27613;48.116;11.656;2022-12-04T10:58:42;18.35;;;12.73;;
41923;SDS011;27613;48.116;11.656;2022-12-04T11:01:19;15.75;;;11.10;;
41923;SDS011;27613;48.116;11.656;2022-12-04T11:03:46;14.45;;;11.07;;
41923;SDS011;27613;48.116;11.656;2022-12-04T11:06:24;14.07;;;11.48;;
41923;SDS011;27613;48.116;11.656;2022-12-04T11:08:51;14.10;;;11.27;;
41923;SDS011;27613;48.116;11.656;2022-12-04T11:11:22;16.67;;;12.35;;
41923;SDS011;27613;48.116;11.656;2022-12-04T11:13:59;16.13;;;12.05;;
41923;SDS011;27613;48.116;11.656;2022-12-04T11:16:39;14.82;;;11.57;;
41923;SDS011;27613;48.116;11.656;2022-12-04T11:21:51;16.88;;;12.43;;
41923;SDS011;27613;48.116;11.656;2022-12-04T11:24:20;14.23;;;11.40;;
41923;SDS011;27613;48.116;11.656;2022-12-04T11:27:00;16.40;;;12.45;;
41923;SDS011;27613;48.116;11.656;2022-12-04T11:29:40;16.23;;;13.10;;
41923;SDS011;27613;48.116;11.656;2022-12-04T11:32:15;23.63;;;15.80;;
41923;SDS011;27613;48.116;11.656;2022-12-04T11:34:51;21.65;;;13.77;;
41923;SDS011;27613;48.116;11.656;2022-12-04T11:37:29;20.10;;;13.38;;
41923;SDS011;27613;48.116;11.656;2022-12-04T11:39:58;17.15;;;12.77;;
41923;SDS011;27613;48.116;11.656;2022-12-04T11:42:25;18.17;;;13.73;;
41923;SDS011;27613;48.116;11.656;2022-12-04T11:44:55;20.58;;;15.20;;
41923;SDS011;27613;48.116;11.656;2022-12-04T11:47:26;21.50;;;14.88;;
41923;SDS011;27613;48.116;11.656;2022-12-04T11:55:09;18.55;;;12.55;;
41923;SDS011;27613;48.116;11.656;2022-12-04T12:00:42;20.40;;;14.50;;
41923;SDS011;27613;48.116;11.656;2022-12-04T12:08:41;24.02;;;15.88;;
41923;SDS011;27613;48.116;11.656;2022-12-04T12:11:25;17.65;;;13.82;;
41923;SDS011;27613;48.116;11.656;2022-12-04T12:16:33;22.80;;;15.68;;
41923;SDS011;27613;48.116;11.656;2022-12-04T12:24:46;16.88;;;11.90;;
41923;SDS011;27613;48.116;11.656;2022-12-04T12:30:03;20.20;;;12.25;;
41923;SDS011;27613;48.116;11.656;2022-12-04T12:32:36;13.77;;;11.02;;
41923;SDS011;27613;48.116;11.656;2022-12-04T12:37:55;14.98;;;10.65;;
41923;SDS011;27613;48.116;11.656;2022-12-04T12:40:30;13.20;;;10.00;;
41923;SDS011;27613;48.116;11.656;2022-12-04T12:43:19;13.23;;;9.75;;
41923;SDS011;27613;48.116;11.656;2022-12-04T12:51:05;19.27;;;13.85;;
41923;SDS011;27613;48.116;11.656;2022-12-04T12:53:38;18.50;;;14.27;;
41923;SDS011;27613;48.116;11.656;2022-12-04T12:56:09;20.17;;;14.32;;
41923;SDS011;27613;48.116;11.656;2022-12-04T12:58:40;20.23;;;13.88;;
41923;SDS011;27613;48.116;11.656;2022-12-04T13:01:14;18.92;;;12.93;;
41923;SDS011;27613;48.116;11.656;2022-12-04T13:07:04;16.80;;;12.68;;
41923;SDS011;27613;48.116;11.656;2022-12-04T13:09:33;16.35;;;12.68;;
41923;SDS011;27613;48.116;11.656;2022-12-04T13:12:02;18.33;;;13.02;;
41923;SDS011;27613;48.116;11.656;2022-12-04T13:14:33;17.77;;;12.70;;
41923;SDS011;27613;48.116;11.656;2022-12-04T13:17:03;25.67;;;13.43;;
41923;SDS011;27613;48.116;11.656;2022-12-04T13:19:37;16.13;;;12.68;;
41923;SDS011;27613;48.116;11.656;2022-12-04T13:25:07;18.92;;;14.10;;
41923;SDS011;27613;48.116;11.656;2022-12-04T13:30:37;26.02;;;16.25;;
41923;SDS011;27613;48.116;11.656;2022-12-04T13:41:29;20.02;;;14.25;;
41923;SDS011;27613;48.116;11.656;2022-12-04T13:43:59;17.80;;;13.07;;
41923;SDS011;27613;48.116;11.656;2022-12-04T13:48:53;20.45;;;13.55;;
41923;SDS011;27613;48.116;11.656;2022-12-04T13:51:38;20.15;;;13.95;;
41923;SDS011;27613;48.116;11.656;2022-12-04T13:56:37;19.30;;;13.73;;
41923;SDS011;27613;48.116;11.656;2022-12-04T14:01:55;17.48;;;13.77;;
41923;SDS011;27613;48.116;11.656;2022-12-04T14:04:30;19.17;;;13.00;;
41923;SDS011;27613;48.116;11.656;2022-12-04T14:07:26;18.70;;;13.73;;
41923;SDS011;27613;48.116;11.656;2022-12-04T14:10:26;18.00;;;12.82;;
41923;SDS011;27613;48.116;11.656;2022-12-04T14:12:57;15.68;;;12.43;;
41923;SDS011;27613;48.116;11.656;2022-12-04T14:15:24;23.83;;;14.00;;
41923;SDS011;27613;48.116;11.656;2022-12-04T14:17:56;18.75;;;14.10;;
41923;SDS011;27613;48.116;11.656;2022-12-04T14:20:37;20.90;;;12.90;;
41923;SDS011;27613;48.116;11.656;2022-12-04T14:25:43;23.63;;;15.48;;
41923;SDS011;27613;48.116;11.656;2022-12-04T14:28:22;17.58;;;12.48;;
41923;SDS011;27613;48.116;11.656;2022-12-04T14:31:02;20.95;;;12.48;;
41923;SDS011;27613;48.116;11.656;2022-12-04T14:33:32;19.23;;;11.98;;
41923;SDS011;27613;48.116;11.656;2022-12-04T14:36:19;21.58;;;14.77;;
41923;SDS011;27613;48.116;11.656;2022-12-04T14:39:39;20.10;;;14.55;;
41923;SDS011;27613;48.116;11.656;2022-12-04T14:41:48;15.70;;;12.80;;
41923;SDS011;27613;48.116;11.656;2022-12-04T14:44:35;23.05;;;14.88;;
41923;SDS011;27613;48.116;11.656;2022-12-04T14:49:57;18.63;;;14.10;;
41923;SDS011;27613;48.116;11.656;2022-12-04T14:58:19;20.17;;;14.10;;
41923;SDS011;27613;48.116;11.656;2022-12-04T15:00:59;19.02;;;13.93;;
41923;SDS011;27613;48.116;11.656;2022-12-04T15:03:43;20.60;;;14.18;;
41923;SDS011;27613;48.116;11.656;2022-12-04T15:06:23;20.42;;;14.77;;
41923;SDS011;27613;48.116;11.656;2022-12-04T15:08:55;22.80;;;15.18;;
41923;SDS011;27613;48.116;11.656;2022-12-04T15:11:50;20.48;;;14.43;;
41923;SDS011;27613;48.116;11.656;2022-12-04T15:14:46;21.08;;;15.77;;
41923;SDS011;27613;48.116;11.656;2022-12-04T15:17:14;18.80;;;14.25;;
41923;SDS011;27613;48.116;11.656;2022-12-04T15:19:40;20.77;;;15.45;;
41923;SDS011;27613;48.116;11.656;2022-12-04T15:22:08;22.48;;;15.93;;
41923;SDS011;27613;48.116;11.656;2022-12-04T15:24:46;25.55;;;17.38;;
41923;SDS011;27613;48.116;11.656;2022-12-04T15:27:12;24.92;;;17.48;;
41923;SDS011;27613;48.116;11.656;2022-12-04T15:29:39;27.77;;;17.98;;
41923;SDS011;27613;48.116;11.656;2022-12-04T15:32:12;28.65;;;19.92;;
41923;SDS011;27613;48.116;11.656;2022-12-04T15:37:15;35.30;;;23.17;;
41923;SDS011;27613;48.116;11.656;2022-12-04T15:39:54;35.78;;;23.20;;
41923;SDS011;27613;48.116;11.656;2022-12-04T15:44:55;38.42;;;21.95;;
41923;SDS011;27613;48.116;11.656;2022-12-04T15:47:29;40.63;;;23.40;;
41923;SDS011;27613;48.116;11.656;2022-12-04T15:50:19;54.03;;;28.20;;
41923;SDS011;27613;48.116;11.656;2022-12-04T15:52:53;38.58;;;24.58;;
41923;SDS011;27613;48.116;11.656;2022-12-04T15:55:31;38.05;;;24.25;;
41923;SDS011;27613;48.116;11.656;2022-12-04T15:58:04;39.63;;;24.08;;
41923;SDS011;27613;48.116;11.656;2022-12-04T16:00:42;40.03;;;25.25;;
41923;SDS011;27613;48.116;11.656;2022-12-04T16:06:02;38.15;;;25.15;;
41923;SDS011;27613;48.116;11.656;2022-12-04T16:08:30;46.17;;;26.15;;
41923;SDS011;27613;48.116;11.656;2022-12-04T16:11:02;39.25;;;24.00;;
41923;SDS011;27613;48.116;11.656;2022-12-04T16:13:33;37.90;;;23.80;;
41923;SDS011;27613;48.116;11.656;2022-12-04T16:16:09;42.90;;;24.67;;
41923;SDS011;27613;48.116;11.656;2022-12-04T16:18:39;35.15;;;22.42;;
41923;SDS011;27613;48.116;11.656;2022-12-04T16:21:05;43.17;;;23.92;;
41923;SDS011;27613;48.116;11.656;2022-12-04T16:23:38;38.58;;;23.08;;
41923;SDS011;27613;48.116;11.656;2022-12-04T16:26:05;32.45;;;20.58;;
41923;SDS011;27613;48.116;11.656;2022-12-04T16:28:37;32.08;;;20.85;;
41923;SDS011;27613;48.116;11.656;2022-12-04T16:31:03;29.88;;;20.33;;